createdAt,value
2023-05-01T00:00:33.474Z,100064.84
2023-05-01T00:03:01.158Z,100059.84
2023-05-01T00:05:28.937Z,100061.78
2023-05-01T00:07:56.534Z,100066.22
2023-05-01T00:10:24.506Z,100058.25
2023-05-01T00:12:52.292Z,100055.59
2023-05-01T00:15:19.900Z,100051.16
2023-05-01T00:17:47.523Z,100052.84
2023-05-01T00:20:15.658Z,100044.03
2023-05-01T00:22:43.626Z,100039.59
2023-05-01T00:25:12.167Z,100036.19
2023-05-01T00:27:39.820Z,100030.97
2023-05-01T00:30:07.594Z,100031.94
2023-05-01T00:32:35.655Z,100028.44
2023-05-01T00:35:04.103Z,100019.63
2023-05-01T00:37:32.466Z,100017.06
2023-05-01T00:40:00.068Z,100021.53
2023-05-01T00:42:27.726Z,100016.34
2023-05-01T00:44:55.318Z,100007.63
2023-05-01T00:47:23.323Z,100011.22
2023-05-01T00:49:51.484Z,100007.84
2023-05-01T00:52:19.109Z,100007.13
2023-05-01T00:54:51.996Z,100003.59
2023-05-01T00:57:19.665Z,99997.56
2023-05-01T00:59:47.611Z,99993.41
2023-05-01T01:02:15.253Z,99997.25
2023-05-01T01:04:43.157Z,99987.16
2023-05-01T01:07:10.730Z,99991.94
2023-05-01T01:09:38.320Z,99987.84
2023-05-01T01:12:06.281Z,99983.84
2023-05-01T01:14:34.436Z,99972.59
2023-05-01T01:17:02.127Z,99973.78
2023-05-01T01:19:29.731Z,99973.88
2023-05-01T01:21:57.298Z,99967.94
2023-05-01T01:24:25.267Z,99967.19
2023-05-01T01:26:54.203Z,99962.84
2023-05-01T01:29:21.821Z,99964.94
2023-05-01T01:31:49.396Z,99965.16
2023-05-01T01:34:17.056Z,99960.06
2023-05-01T01:36:45.018Z,99966.41
2023-05-01T01:39:12.716Z,99956.13
2023-05-01T01:41:40.363Z,99964.31
2023-05-01T01:44:07.994Z,99957.50
2023-05-01T01:46:35.796Z,99955.81
2023-05-01T01:49:04.639Z,99948.81
2023-05-01T01:51:32.424Z,99946.16
2023-05-01T01:53:59.990Z,99932.91
2023-05-01T01:56:28.057Z,99930.16
2023-05-01T01:58:55.624Z,99931.84
2023-05-01T02:01:23.582Z,99928.25
2023-05-01T02:03:51.360Z,99930.81
2023-05-01T02:06:19.013Z,99929.09
2023-05-01T02:08:46.583Z,99922.31
2023-05-01T02:11:14.711Z,99920.84
2023-05-01T02:13:42.656Z,99919.34
2023-05-01T02:16:10.328Z,99920.47
2023-05-01T02:18:37.946Z,99919.00
2023-05-01T02:21:05.521Z,99910.50
2023-05-01T02:23:33.661Z,99910.91
2023-05-01T02:26:01.690Z,99900.63
2023-05-01T02:28:29.244Z,99908.69
2023-05-01T02:30:57.453Z,99899.16
2023-05-01T02:33:25.946Z,99892.91
2023-05-01T02:35:53.528Z,99903.50
2023-05-01T02:38:21.780Z,99897.34
2023-05-01T02:40:49.414Z,99892.91
2023-05-01T02:43:17.359Z,99892.81
2023-05-01T02:45:44.951Z,99886.56
2023-05-01T02:48:12.680Z,99884.88
2023-05-01T02:50:41.672Z,99877.00
2023-05-01T02:53:09.828Z,99876.16
2023-05-01T02:55:37.714Z,99874.59
2023-05-01T02:58:05.281Z,99874.69
2023-05-01T03:00:32.905Z,99873.94
2023-05-01T03:03:00.960Z,99873.94
2023-05-01T03:05:28.543Z,99860.78
2023-05-01T03:07:56.108Z,99868.75
2023-05-01T03:10:23.983Z,99856.31
2023-05-01T03:12:51.504Z,99858.06
2023-05-01T03:15:19.499Z,99855.19
2023-05-01T03:17:47.984Z,99857.84
2023-05-01T03:20:16.202Z,99854.22
2023-05-01T03:22:44.224Z,99850.53
2023-05-01T03:25:11.849Z,99844.50
2023-05-01T03:27:39.783Z,99846.59
2023-05-01T03:30:07.338Z,99849.56
2023-05-01T03:32:34.949Z,99843.41
2023-05-01T03:35:02.686Z,99839.19
2023-05-01T03:37:30.456Z,99841.94
2023-05-01T03:39:58.518Z,99833.75
2023-05-01T03:42:26.339Z,99834.63
2023-05-01T03:44:53.916Z,99832.81
2023-05-01T03:47:21.580Z,99832.81
2023-05-01T03:49:49.116Z,99832.81
2023-05-01T03:52:17.094Z,99827.63
2023-05-01T03:54:45.011Z,99824.13
2023-05-01T03:57:12.569Z,99827.50
2023-05-01T03:59:40.172Z,99820.53
2023-05-01T04:02:08.109Z,99822.22
2023-05-01T04:04:36.472Z,99812.50
2023-05-01T04:07:04.111Z,99817.56
2023-05-01T04:09:31.709Z,99815.69
2023-05-01T04:11:59.224Z,99817.16
2023-05-01T04:14:26.781Z,99809.84
2023-05-01T04:16:54.724Z,99813.13
2023-05-01T04:19:22.597Z,99815.47
2023-05-01T04:21:50.131Z,99816.09
2023-05-01T04:24:17.989Z,99806.22
2023-05-01T04:26:45.558Z,99809.41
2023-05-01T04:29:13.528Z,99805.72
2023-05-01T04:31:41.932Z,99808.03
2023-05-01T04:34:09.525Z,99802.31
2023-05-01T04:36:37.241Z,99801.13
2023-05-01T04:39:05.548Z,99799.97
2023-05-01T04:41:33.464Z,99801.44
2023-05-01T04:44:01.108Z,99795.31
2023-05-01T04:46:29.112Z,99801.44
2023-05-01T04:48:56.692Z,99801.44
2023-05-01T04:51:24.220Z,99796.16
2023-05-01T04:53:52.164Z,99804.00
2023-05-01T04:56:20.149Z,99798.59
2023-05-01T04:58:47.910Z,99801.75
2023-05-01T05:01:15.640Z,99796.03
2023-05-01T05:03:43.419Z,99798.97
2023-05-01T05:06:11.820Z,99796.63
2023-05-01T05:08:39.401Z,99802.22
2023-05-01T05:11:07.351Z,99791.81
2023-05-01T05:13:34.976Z,99790.31
2023-05-01T05:16:02.571Z,99784.44
2023-05-01T05:18:30.596Z,99795.22
2023-05-01T05:20:58.179Z,99791.16
2023-05-01T05:23:25.796Z,99796.66
2023-05-01T05:25:53.375Z,99789.78
2023-05-01T05:28:24.182Z,99786.34
2023-05-01T05:30:52.128Z,99785.31
2023-05-01T05:33:19.724Z,99788.72
2023-05-01T05:35:47.536Z,99783.19
2023-05-01T05:38:15.813Z,99784.69
2023-05-01T05:40:43.365Z,99782.50
2023-05-01T05:43:11.820Z,99784.13
2023-05-01T05:45:39.601Z,99773.09
2023-05-01T05:48:07.264Z,99783.38
2023-05-01T05:50:35.144Z,99776.59
2023-05-01T05:53:02.766Z,99771.34
2023-05-01T05:55:30.711Z,99766.91
2023-05-01T05:57:58.528Z,99765.75
2023-05-01T06:00:26.124Z,99766.22
2023-05-01T06:02:53.774Z,99761.34
2023-05-01T06:05:21.427Z,99761.91
2023-05-01T06:07:49.411Z,99767.78
2023-05-01T06:10:17.785Z,99761.38
2023-05-01T06:12:48.210Z,99758.91
2023-05-01T06:15:24.889Z,99757.41
2023-05-01T06:17:52.937Z,99757.59
2023-05-01T06:20:20.883Z,99758.69
2023-05-01T06:22:48.524Z,99755.34
2023-05-01T06:25:16.150Z,99760.69
2023-05-01T06:27:43.691Z,99754.59
2023-05-01T06:30:11.663Z,99755.03
2023-05-01T06:32:39.269Z,99752.59
2023-05-01T06:35:06.830Z,99753.84
2023-05-01T06:37:34.502Z,99753.56
2023-05-01T06:40:02.057Z,99756.09
2023-05-01T06:42:30.004Z,99751.72
2023-05-01T06:44:57.715Z,99753.56
2023-05-01T06:47:25.423Z,99751.59
2023-05-01T06:49:53.066Z,99749.59
2023-05-01T06:52:20.679Z,99748.19
2023-05-01T06:54:48.950Z,99750.13
2023-05-01T06:57:16.851Z,99755.31
2023-05-01T06:59:44.501Z,99744.72
2023-05-01T07:02:12.241Z,99744.34
2023-05-01T07:04:39.853Z,99745.00
2023-05-01T07:07:07.861Z,99734.97
2023-05-01T07:09:36.124Z,99734.72
2023-05-01T07:12:03.810Z,99738.22
2023-05-01T07:14:31.426Z,99730.78
2023-05-01T07:16:59.546Z,99729.53
2023-05-01T07:19:27.556Z,99729.34
2023-05-01T07:21:55.308Z,99734.16
2023-05-01T07:24:22.913Z,99727.84
2023-05-01T07:26:50.535Z,99722.06
2023-05-01T07:29:18.220Z,99729.75
2023-05-01T07:31:46.260Z,99729.50
2023-05-01T07:34:14.003Z,99724.00
2023-05-01T07:36:41.761Z,99727.44
2023-05-01T07:39:09.445Z,99728.81
2023-05-01T07:41:37.057Z,99729.56
2023-05-01T07:44:05.118Z,99723.91
2023-05-01T07:46:33.675Z,99720.09
2023-05-01T07:49:01.599Z,99717.78
2023-05-01T07:51:29.248Z,99722.69
2023-05-01T07:53:56.963Z,99718.56
2023-05-01T07:56:25.147Z,99716.09
2023-05-01T07:58:53.625Z,99717.44
2023-05-01T08:01:21.268Z,99714.75
2023-05-01T08:03:50.908Z,99713.28
2023-05-01T08:06:18.885Z,99712.09
2023-05-01T08:08:46.901Z,99715.75
2023-05-01T08:11:14.619Z,99708.53
2023-05-01T08:13:42.317Z,99711.16
2023-05-01T08:16:10.230Z,99712.00
2023-05-01T08:18:37.892Z,99713.00
2023-05-01T08:21:05.902Z,99709.59
2023-05-01T08:23:33.511Z,99708.44
2023-05-01T08:26:01.355Z,99705.53
2023-05-01T08:28:29.088Z,99707.19
2023-05-01T08:30:56.813Z,99697.53
2023-05-01T08:33:24.923Z,99693.75
2023-05-01T08:35:52.763Z,99694.53
2023-05-01T08:38:20.581Z,99695.97
2023-05-01T08:40:48.540Z,99695.44
2023-05-01T08:43:16.440Z,99696.56
2023-05-01T08:45:44.167Z,99696.34
2023-05-01T08:48:12.161Z,99693.56
2023-05-01T08:50:40.015Z,99700.22
2023-05-01T08:53:07.813Z,99690.84
2023-05-01T08:55:36.337Z,99691.19
2023-05-01T08:58:04.386Z,99686.66
2023-05-01T09:00:34.352Z,99685.09
2023-05-01T09:03:02.491Z,99686.34
2023-05-01T09:05:30.603Z,99686.88
2023-05-01T09:07:58.487Z,99682.41
2023-05-01T09:10:27.050Z,99678.50
2023-05-01T09:12:54.807Z,99675.41
2023-05-01T09:15:22.558Z,99669.16
2023-05-01T09:17:50.315Z,99681.66
2023-05-01T09:20:18.290Z,99676.25
2023-05-01T09:22:46.454Z,99681.00
2023-05-01T09:25:15.766Z,99672.53
2023-05-01T09:27:43.507Z,99668.16
2023-05-01T09:30:11.267Z,99670.47
2023-05-01T09:32:40.208Z,99671.75
2023-05-01T09:35:10.056Z,99675.63
2023-05-01T09:37:37.801Z,99675.03
2023-05-01T09:40:05.606Z,99678.66
2023-05-01T09:42:33.833Z,99679.38
2023-05-01T09:45:02.019Z,99673.75
2023-05-01T09:47:30.888Z,99669.34
2023-05-01T09:49:59.812Z,99668.13
2023-05-01T09:52:27.911Z,99657.28
2023-05-01T09:54:55.772Z,99661.84
2023-05-01T09:57:23.770Z,99658.91
2023-05-01T09:59:51.903Z,99661.63
2023-05-01T10:02:19.948Z,99653.97
2023-05-01T10:04:48.904Z,99655.88
2023-05-01T10:07:16.678Z,99651.09
2023-05-01T10:09:44.348Z,99654.84
2023-05-01T10:12:12.831Z,99645.56
2023-05-01T10:14:40.622Z,99640.84
2023-05-01T10:17:08.492Z,99647.28
2023-05-01T10:19:36.357Z,99648.75
2023-05-01T10:22:04.110Z,99650.16
2023-05-01T10:24:32.105Z,99639.78
2023-05-01T10:27:00.049Z,99649.84
2023-05-01T10:29:27.842Z,99652.66
2023-05-01T10:31:56.003Z,99650.53
2023-05-01T10:34:25.488Z,99646.97
2023-05-01T10:36:55.520Z,99643.00
2023-05-01T10:39:23.492Z,99647.81
2023-05-01T10:41:51.274Z,99648.59
2023-05-01T10:44:19.129Z,99642.03
2023-05-01T10:46:47.080Z,99649.69
2023-05-01T10:49:15.677Z,99647.88
2023-05-01T10:51:43.842Z,99637.97
2023-05-01T10:54:11.960Z,99639.56
2023-05-01T10:56:39.863Z,99636.59
2023-05-01T10:59:07.703Z,99649.44
2023-05-01T11:01:36.066Z,99643.59
2023-05-01T11:04:04.470Z,99639.38
2023-05-01T11:06:32.459Z,99645.97
2023-05-01T11:09:00.286Z,99631.72
2023-05-01T11:11:28.096Z,99637.09
2023-05-01T11:13:56.314Z,99639.63
2023-05-01T11:16:24.861Z,99632.13
2023-05-01T11:18:52.693Z,99630.94
2023-05-01T11:21:20.915Z,99636.28
2023-05-01T11:23:48.712Z,99619.25
2023-05-01T11:26:17.071Z,99626.09
2023-05-01T11:28:45.253Z,99630.19
2023-05-01T11:31:13.036Z,99628.75
2023-05-01T11:33:41.539Z,99635.44
2023-05-01T11:36:09.348Z,99630.84
2023-05-01T11:38:37.469Z,99642.28
2023-05-01T11:41:05.954Z,99637.41
2023-05-01T11:43:34.018Z,99636.47
2023-05-01T11:46:04.809Z,99634.53
2023-05-01T11:48:32.748Z,99640.72
2023-05-01T11:51:01.011Z,99635.56
2023-05-01T11:53:28.932Z,99633.28
2023-05-01T11:55:57.142Z,99633.09
2023-05-01T11:58:25.304Z,99633.72
2023-05-01T12:00:53.162Z,99642.72
2023-05-01T12:03:21.488Z,99641.09
2023-05-01T12:05:49.407Z,99634.78
2023-05-01T12:08:18.842Z,99636.34
2023-05-01T12:10:46.801Z,99636.91
2023-05-01T12:13:14.602Z,99636.66
2023-05-01T12:15:42.714Z,99633.28
2023-05-01T12:18:10.772Z,99633.50
2023-05-01T12:20:38.688Z,99634.31
2023-05-01T12:23:06.777Z,99633.50
2023-05-01T12:25:35.232Z,99640.09
2023-05-01T12:28:03.335Z,99631.72
2023-05-01T12:30:31.342Z,99631.44
2023-05-01T12:32:59.149Z,99628.63
2023-05-01T12:35:27.057Z,99627.53
2023-05-01T12:37:54.977Z,99627.25
2023-05-01T12:40:23.871Z,99634.06
2023-05-01T12:42:51.706Z,99624.63
2023-05-01T12:45:19.541Z,99631.91
2023-05-01T12:47:47.561Z,99626.69
2023-05-01T12:50:15.309Z,99631.06
2023-05-01T12:52:43.520Z,99631.69
2023-05-01T12:55:12.793Z,99620.56
2023-05-01T12:57:40.544Z,99620.00
2023-05-01T13:00:10.860Z,99616.16
2023-05-01T13:02:39.063Z,99610.75
2023-05-01T13:05:07.478Z,99608.69
2023-05-01T13:07:35.861Z,99616.84
2023-05-01T13:10:04.231Z,99614.09
2023-05-01T13:12:32.726Z,99603.72
2023-05-01T13:15:00.723Z,99601.75
2023-05-01T13:17:29.397Z,99598.56
2023-05-01T13:19:58.082Z,99593.06
2023-05-01T13:22:26.283Z,99589.34
2023-05-01T13:24:54.973Z,99581.75
2023-05-01T13:27:23.028Z,99582.06
2023-05-01T13:29:51.300Z,99573.75
2023-05-01T13:32:19.287Z,99571.09
2023-05-01T13:34:47.430Z,99568.50
2023-05-01T13:37:15.288Z,99575.88
2023-05-01T13:39:43.246Z,99567.84
2023-05-01T13:42:11.639Z,99572.47
2023-05-01T13:44:39.587Z,99578.78
2023-05-01T13:47:07.738Z,99595.56
2023-05-01T13:49:35.462Z,99586.16
2023-05-01T13:52:03.493Z,99590.63
2023-05-01T13:54:31.471Z,99587.97
2023-05-01T13:56:59.699Z,99591.13
2023-05-01T13:59:27.558Z,99598.06
2023-05-01T14:01:55.505Z,99589.13
2023-05-01T14:04:24.079Z,99587.72
2023-05-01T14:06:52.447Z,99586.34
2023-05-01T14:09:20.601Z,99593.69
2023-05-01T14:11:48.352Z,99592.25
2023-05-01T14:14:16.365Z,99593.78
2023-05-01T14:16:45.820Z,99585.72
2023-05-01T14:19:14.257Z,99582.00
2023-05-01T14:21:42.030Z,99584.34
2023-05-01T14:24:10.164Z,99591.94
2023-05-01T14:26:39.587Z,99589.50
2023-05-01T14:29:09.039Z,99594.63
2023-05-01T14:31:37.686Z,99596.41
2023-05-01T14:34:06.510Z,99590.75
2023-05-01T14:36:34.223Z,99587.75
2023-05-01T14:39:02.223Z,99589.34
2023-05-01T14:41:30.352Z,99585.16
2023-05-01T14:43:58.725Z,99584.69
2023-05-01T14:46:27.048Z,99587.09
2023-05-01T14:48:55.019Z,99589.53
2023-05-01T14:51:22.958Z,99588.84
2023-05-01T14:53:51.088Z,99596.09
2023-05-01T14:56:19.413Z,99594.44
2023-05-01T14:58:47.793Z,99594.44
2023-05-01T15:01:15.831Z,99591.56
2023-05-01T15:03:44.241Z,99592.38
2023-05-01T15:06:12.266Z,99593.91
2023-05-01T15:08:40.830Z,99584.59
2023-05-01T15:11:09.045Z,99588.78
2023-05-01T15:13:37.092Z,99594.91
2023-05-01T15:16:05.140Z,99592.81
2023-05-01T15:18:32.929Z,99593.72
2023-05-01T15:21:01.135Z,99583.56
2023-05-01T15:23:29.359Z,99571.81
2023-05-01T15:25:57.385Z,99571.75
2023-05-01T15:28:25.453Z,99571.56
2023-05-01T15:30:53.251Z,99575.72
2023-05-01T15:33:21.575Z,99575.09
2023-05-01T15:35:51.342Z,99573.19
2023-05-01T15:38:20.807Z,99580.19
2023-05-01T15:40:50.185Z,99574.28
2023-05-01T15:43:18.068Z,99583.13
2023-05-01T15:45:46.795Z,99582.75
2023-05-01T15:48:14.940Z,99588.81
2023-05-01T15:50:42.761Z,99590.13
2023-05-01T15:53:10.534Z,99585.56
2023-05-01T15:55:38.306Z,99593.28
2023-05-01T15:58:06.954Z,99588.53
2023-05-01T16:00:36.198Z,99594.84
2023-05-01T16:03:04.814Z,99591.34
2023-05-01T16:05:32.862Z,99599.25
2023-05-01T16:08:00.780Z,99624.81
2023-05-01T16:10:28.889Z,99634.91
2023-05-01T16:12:57.063Z,99642.59
2023-05-01T16:15:25.027Z,99650.59
2023-05-01T16:17:55.031Z,99660.31
2023-05-01T16:20:23.225Z,99675.00
2023-05-01T16:22:52.677Z,99676.53
2023-05-01T16:25:21.232Z,99673.13
2023-05-01T16:27:49.072Z,99688.88
2023-05-01T16:30:16.952Z,99696.91
2023-05-01T16:32:44.838Z,99702.66
2023-05-01T16:35:13.010Z,99718.19
2023-05-01T16:37:41.683Z,99726.25
2023-05-01T16:40:09.597Z,99724.41
2023-05-01T16:42:38.725Z,99728.66
2023-05-01T16:45:08.684Z,99736.03
2023-05-01T16:47:37.044Z,99734.69
2023-05-01T16:50:05.092Z,99736.50
2023-05-01T16:52:33.066Z,99745.41
2023-05-01T16:55:01.932Z,99742.25
2023-05-01T16:57:29.775Z,99745.00
2023-05-01T16:59:58.472Z,99749.44
2023-05-01T17:02:26.763Z,99752.56
2023-05-01T17:04:54.926Z,99746.81
2023-05-01T17:07:22.916Z,99752.47
2023-05-01T17:09:50.774Z,99760.78
2023-05-01T17:12:18.557Z,99748.69
2023-05-01T17:14:46.464Z,99757.84
2023-05-01T17:17:14.177Z,99758.84
2023-05-01T17:19:42.061Z,99764.88
2023-05-01T17:22:10.024Z,99763.88
2023-05-01T17:24:38.187Z,99765.56
2023-05-01T17:27:07.949Z,99769.94
2023-05-01T17:29:35.755Z,99763.63
2023-05-01T17:32:04.728Z,99764.31
2023-05-01T17:34:32.560Z,99754.44
2023-05-01T17:37:01.178Z,99765.31
2023-05-01T17:39:29.513Z,99760.34
2023-05-01T17:41:57.429Z,99764.28
2023-05-01T17:44:25.375Z,99769.88
2023-05-01T17:46:53.178Z,99766.59
2023-05-01T17:49:21.914Z,99776.72
2023-05-01T17:51:49.916Z,99776.53
2023-05-01T17:54:17.916Z,99772.03
2023-05-01T17:56:46.087Z,99770.38
2023-05-01T17:59:14.143Z,99772.19
2023-05-01T18:01:42.497Z,99776.00
2023-05-01T18:04:11.054Z,99772.63
2023-05-01T18:06:39.220Z,99782.13
2023-05-01T18:09:07.912Z,99784.25
2023-05-01T18:11:35.818Z,99789.22
2023-05-01T18:14:05.133Z,99788.81
2023-05-01T18:16:32.914Z,99797.16
2023-05-01T18:19:00.930Z,99789.66
2023-05-01T18:21:28.898Z,99787.44
2023-05-01T18:23:56.665Z,99789.56
2023-05-01T18:26:26.750Z,99785.53
2023-05-01T18:28:55.368Z,99787.78
2023-05-01T18:31:23.402Z,99791.72
2023-05-01T18:33:51.619Z,99785.84
2023-05-01T18:36:19.551Z,99796.00
2023-05-01T18:38:47.566Z,99796.97
2023-05-01T18:41:15.802Z,99797.97
2023-05-01T18:43:43.661Z,99799.97
2023-05-01T18:46:11.558Z,99809.81
2023-05-01T18:48:39.574Z,99806.44
2023-05-01T18:51:09.373Z,99809.41
2023-05-01T18:53:38.081Z,99807.19
2023-05-01T18:56:06.241Z,99820.84
2023-05-01T18:58:34.079Z,99817.78
2023-05-01T19:01:02.150Z,99825.38
2023-05-01T19:03:30.547Z,99830.47
2023-05-01T19:05:59.183Z,99829.34
2023-05-01T19:08:26.948Z,99833.03
2023-05-01T19:10:54.850Z,99834.56
2023-05-01T19:13:22.794Z,99840.34
2023-05-01T19:15:50.683Z,99840.91
2023-05-01T19:18:20.010Z,99848.38
2023-05-01T19:20:48.050Z,99846.13
2023-05-01T19:23:15.844Z,99847.38
2023-05-01T19:25:43.715Z,99846.81
2023-05-01T19:28:11.660Z,99854.13
2023-05-01T19:30:39.406Z,99864.13
2023-05-01T19:33:07.267Z,99862.44
2023-05-01T19:35:35.860Z,99871.44
2023-05-01T19:38:03.672Z,99871.69
2023-05-01T19:40:31.802Z,99869.03
2023-05-01T19:42:59.756Z,99868.28
2023-05-01T19:45:27.629Z,99867.44
2023-05-01T19:47:55.650Z,99866.44
2023-05-01T19:50:23.706Z,99871.78
2023-05-01T19:52:52.026Z,99878.00
2023-05-01T19:55:20.295Z,99877.03
2023-05-01T19:57:48.283Z,99881.41
2023-05-01T20:00:16.206Z,99883.25
2023-05-01T20:02:44.559Z,99886.03
2023-05-01T20:05:13.733Z,99892.34
2023-05-01T20:07:41.850Z,99887.13
2023-05-01T20:10:09.908Z,99894.16
2023-05-01T20:12:38.562Z,99895.03
2023-05-01T20:15:06.444Z,99900.28
2023-05-01T20:17:34.978Z,99904.63
2023-05-01T20:20:03.447Z,99908.00
2023-05-01T20:22:31.225Z,99907.88
2023-05-01T20:25:00.670Z,99916.31
2023-05-01T20:27:28.708Z,99911.41
2023-05-01T20:29:57.522Z,99913.66
2023-05-01T20:32:25.617Z,99909.88
2023-05-01T20:34:55.614Z,99915.91
2023-05-01T20:37:23.447Z,99916.91
2023-05-01T20:39:51.184Z,99922.53
2023-05-01T20:42:19.024Z,99914.94
2023-05-01T20:44:46.864Z,99923.09
2023-05-01T20:47:15.223Z,99916.31
2023-05-01T20:49:43.054Z,99920.25
2023-05-01T20:52:11.086Z,99920.75
2023-05-01T20:54:39.546Z,99922.75
2023-05-01T20:57:07.869Z,99930.06
2023-05-01T20:59:35.730Z,99921.19
2023-05-01T21:02:03.534Z,99927.38
2023-05-01T21:04:31.503Z,99923.16
2023-05-01T21:06:59.408Z,99923.16
2023-05-01T21:09:27.468Z,99935.66
2023-05-01T21:11:55.318Z,99932.84
2023-05-01T21:14:23.137Z,99937.78
2023-05-01T21:16:50.857Z,99943.75
2023-05-01T21:19:19.034Z,99947.69
2023-05-01T21:21:47.066Z,99944.47
2023-05-01T21:24:14.890Z,99939.56
2023-05-01T21:26:42.762Z,99937.31
2023-05-01T21:29:10.702Z,99942.22
2023-05-01T21:31:38.786Z,99944.47
2023-05-01T21:34:07.095Z,99947.88
2023-05-01T21:36:34.707Z,99955.63
2023-05-01T21:39:02.469Z,99950.16
2023-05-01T21:41:30.194Z,99951.84
2023-05-01T21:43:58.258Z,99952.69
2023-05-01T21:46:26.429Z,99952.53
2023-05-01T21:48:54.157Z,99955.19
2023-05-01T21:51:22.201Z,99962.25
2023-05-01T21:53:50.035Z,99968.44
2023-05-01T21:56:18.164Z,99972.81
2023-05-01T21:58:46.292Z,99970.00
2023-05-01T22:01:14.008Z,99978.84
2023-05-01T22:03:42.744Z,99980.41
2023-05-01T22:06:10.561Z,99987.63
2023-05-01T22:08:38.558Z,99981.41
2023-05-01T22:11:08.462Z,99981.28
2023-05-01T22:13:36.614Z,99988.44
2023-05-01T22:16:04.366Z,99990.28
2023-05-01T22:18:32.272Z,99985.91
2023-05-01T22:21:01.770Z,99991.97
2023-05-01T22:23:29.694Z,99992.97
2023-05-01T22:26:00.362Z,100008.03
2023-05-01T22:28:27.996Z,100002.94
2023-05-01T22:30:55.818Z,100006.59
2023-05-01T22:33:23.850Z,100009.56
2023-05-01T22:35:52.302Z,100006.19
2023-05-01T22:38:19.947Z,100012.50
2023-05-01T22:40:47.630Z,100009.13
2023-05-01T22:43:15.575Z,100006.00
2023-05-01T22:45:43.609Z,100014.31
2023-05-01T22:48:12.246Z,100006.81
2023-05-01T22:50:39.957Z,100014.69
2023-05-01T22:53:07.698Z,100016.22
2023-05-01T22:55:35.360Z,100012.13
2023-05-01T22:58:03.593Z,100018.72
2023-05-01T23:00:31.599Z,100014.44
2023-05-01T23:02:59.357Z,100020.94
2023-05-01T23:05:27.039Z,100024.84
2023-05-01T23:07:54.587Z,100033.25
2023-05-01T23:10:22.624Z,100039.59
2023-05-01T23:12:50.735Z,100035.34
2023-05-01T23:15:18.660Z,100040.00
2023-05-01T23:17:46.381Z,100041.34
2023-05-01T23:20:14.388Z,100043.44
2023-05-01T23:22:42.337Z,100042.72
2023-05-01T23:25:10.022Z,100044.41
2023-05-01T23:27:39.353Z,100045.28
2023-05-01T23:30:07.934Z,100046.13
2023-05-01T23:32:35.653Z,100047.84
2023-05-01T23:35:04.166Z,100054.88
2023-05-01T23:37:31.801Z,100049.53
2023-05-01T23:40:01.035Z,100049.66
2023-05-01T23:42:28.843Z,100056.81
2023-05-01T23:44:56.448Z,100060.44
2023-05-01T23:47:24.451Z,100062.13
2023-05-01T23:49:52.112Z,100059.47
2023-05-01T23:52:19.711Z,100063.00
2023-05-01T23:54:47.330Z,100062.13
2023-05-01T23:57:14.878Z,100069.34
2023-05-01T23:59:42.968Z,100066.66
